createdAt,value
2019-01-23T00:01:23.663Z,44.10
2019-01-23T00:03:51.250Z,39.33
2019-01-23T00:06:17.984Z,34.37
2019-01-23T00:08:44.614Z,38.73
2019-01-23T00:11:12.009Z,34.13
2019-01-23T00:13:38.748Z,40.70
2019-01-23T00:16:05.542Z,34.97
2019-01-23T00:18:32.739Z,36.57
2019-01-23T00:20:59.478Z,39.30
2019-01-23T00:23:26.214Z,37.40
2019-01-23T00:25:53.111Z,38.27
2019-01-23T00:28:19.846Z,36.03
2019-01-23T00:30:46.872Z,38.00
2019-01-23T00:33:13.589Z,38.23
2019-01-23T00:35:40.332Z,40.67
2019-01-23T00:38:07.121Z,37.10
2019-01-23T00:40:34.229Z,36.97
2019-01-23T00:43:01.056Z,39.07
2019-01-23T00:45:27.884Z,43.57
2019-01-23T00:47:54.825Z,39.50
2019-01-23T00:50:21.558Z,40.07
2019-01-23T00:52:48.384Z,38.87
2019-01-23T00:55:15.204Z,44.63
2019-01-23T00:57:42.041Z,39.50
2019-01-23T01:00:28.458Z,38.23
2019-01-23T01:02:55.305Z,41.70
2019-01-23T01:05:22.140Z,41.43
2019-01-23T01:07:49.031Z,38.33
2019-01-23T01:10:16.251Z,37.07
2019-01-23T01:12:43.267Z,41.80
2019-01-23T01:15:13.476Z,38.93
2019-01-23T01:17:39.313Z,30.63
2019-01-23T01:20:07.746Z,39.83
2019-01-23T01:22:34.982Z,34.93
2019-01-23T01:25:01.729Z,40.97
2019-01-23T01:27:28.589Z,37.07
2019-01-23T01:29:55.665Z,34.70
2019-01-23T01:32:22.494Z,38.00
2019-01-23T01:34:49.224Z,38.87
2019-01-23T01:37:16.363Z,33.67
2019-01-23T01:39:43.235Z,31.47
2019-01-23T01:42:09.970Z,30.57
2019-01-23T01:44:36.876Z,39.83
2019-01-23T01:47:03.612Z,33.90
2019-01-23T01:49:30.419Z,32.63
2019-01-23T01:51:57.353Z,35.93
2019-01-23T01:54:24.079Z,38.37
2019-01-23T01:56:50.818Z,39.63
2019-01-23T01:59:17.854Z,33.93
2019-01-23T02:01:44.593Z,33.80
2019-01-23T02:04:11.459Z,35.50
2019-01-23T02:06:38.258Z,35.23
2019-01-23T02:09:07.258Z,34.07
2019-01-23T02:11:34.276Z,30.80
2019-01-23T02:14:01.473Z,25.07
2019-01-23T02:16:28.206Z,33.33
2019-01-23T02:18:54.845Z,38.37
2019-01-23T02:21:21.707Z,37.13
2019-01-23T02:23:48.586Z,33.93
2019-01-23T02:26:15.315Z,36.20
2019-01-23T02:28:42.573Z,27.87
2019-01-23T02:31:09.442Z,31.97
2019-01-23T02:33:36.444Z,35.57
2019-01-23T02:36:03.425Z,32.30
2019-01-23T02:38:30.163Z,38.60
2019-01-23T02:40:57.301Z,38.07
2019-01-23T02:43:24.005Z,40.60
2019-01-23T02:45:50.734Z,34.33
2019-01-23T02:48:17.709Z,37.33
2019-01-23T02:50:44.822Z,36.87
2019-01-23T02:53:11.571Z,28.73
2019-01-23T02:55:38.323Z,38.27
2019-01-23T02:58:05.177Z,39.13
2019-01-23T03:00:32.691Z,35.67
2019-01-23T03:02:59.525Z,37.97
2019-01-23T03:05:26.336Z,34.10
2019-01-23T03:07:53.072Z,28.70
2019-01-23T03:10:20.418Z,27.07
2019-01-23T03:12:47.553Z,35.63
2019-01-23T03:15:55.719Z,37.70
2019-01-23T03:18:22.581Z,34.67
2019-01-23T03:20:49.320Z,38.10
2019-01-23T03:23:16.061Z,39.30
2019-01-23T03:25:42.923Z,27.20
2019-01-23T03:28:09.659Z,41.33
2019-01-23T03:30:36.305Z,36.03
2019-01-23T03:33:03.177Z,35.70
2019-01-23T03:35:30.563Z,38.40
2019-01-23T03:37:57.312Z,40.67
2019-01-23T03:40:24.109Z,39.00
2019-01-23T03:42:50.860Z,38.03
2019-01-23T03:45:58.704Z,37.03
2019-01-23T03:48:25.437Z,38.53
2019-01-23T03:50:52.173Z,37.47
2019-01-23T03:53:19.176Z,31.07
2019-01-23T03:55:45.937Z,38.83
2019-01-23T03:58:13.063Z,38.40
2019-01-23T04:00:40.217Z,41.23
2019-01-23T04:03:06.979Z,37.83
2019-01-23T04:05:34.182Z,40.37
2019-01-23T04:08:01.057Z,40.13
2019-01-23T04:10:27.810Z,31.33
2019-01-23T04:12:54.545Z,38.97
2019-01-23T04:15:21.452Z,31.40
2019-01-23T04:17:48.190Z,36.37
2019-01-23T04:20:16.825Z,36.83
2019-01-23T04:22:43.863Z,29.93
2019-01-23T04:25:10.989Z,36.17
2019-01-23T04:27:37.842Z,32.07
2019-01-23T04:30:06.502Z,31.00
2019-01-23T04:32:33.234Z,41.67
2019-01-23T04:34:59.977Z,34.93
2019-01-23T04:37:27.067Z,37.53
2019-01-23T04:39:54.088Z,39.73
2019-01-23T04:42:20.826Z,40.17
2019-01-23T04:44:47.682Z,42.90
2019-01-23T04:47:14.410Z,29.77
2019-01-23T04:49:41.170Z,33.60
2019-01-23T04:52:27.597Z,34.03
2019-01-23T04:54:54.308Z,37.77
2019-01-23T04:57:21.177Z,34.13
2019-01-23T04:59:47.959Z,33.87
2019-01-23T05:02:14.687Z,34.53
2019-01-23T05:04:41.315Z,36.20
2019-01-23T05:07:08.075Z,37.30
2019-01-23T05:09:34.817Z,28.73
2019-01-23T05:12:01.546Z,33.73
2019-01-23T05:14:28.472Z,32.97
2019-01-23T05:16:55.239Z,37.07
2019-01-23T05:19:22.322Z,32.57
2019-01-23T05:21:49.111Z,36.37
2019-01-23T05:24:15.971Z,34.30
2019-01-23T05:26:43.025Z,36.07
2019-01-23T05:29:09.813Z,35.07
2019-01-23T05:31:36.587Z,36.70
2019-01-23T05:34:10.769Z,29.70
2019-01-23T05:36:37.570Z,35.53
2019-01-23T05:39:07.179Z,33.83
2019-01-23T05:41:33.811Z,34.40
2019-01-23T05:44:00.956Z,30.53
2019-01-23T05:46:27.688Z,37.63
2019-01-23T05:48:54.438Z,30.43
2019-01-23T05:51:21.529Z,36.00
2019-01-23T05:53:48.162Z,36.73
2019-01-23T05:56:15.100Z,35.00
2019-01-23T05:58:42.036Z,37.63
2019-01-23T06:01:09.209Z,34.07
2019-01-23T06:03:36.603Z,38.93
2019-01-23T06:06:03.802Z,35.33
2019-01-23T06:08:30.707Z,38.23
2019-01-23T06:10:57.443Z,35.37
2019-01-23T06:13:24.724Z,41.07
2019-01-23T06:15:51.566Z,40.07
2019-01-23T06:18:18.188Z,38.97
2019-01-23T06:20:46.956Z,39.03
2019-01-23T06:23:14.115Z,43.80
2019-01-23T06:26:00.542Z,38.27
2019-01-23T06:28:27.402Z,32.47
2019-01-23T06:30:54.199Z,39.23
2019-01-23T06:33:21.024Z,40.87
2019-01-23T06:35:47.891Z,40.40
2019-01-23T06:38:14.528Z,42.17
2019-01-23T06:40:41.592Z,43.50
2019-01-23T06:43:08.340Z,42.10
2019-01-23T06:45:35.075Z,37.47
2019-01-23T06:48:01.871Z,35.47
2019-01-23T06:50:28.505Z,38.23
2019-01-23T06:52:55.232Z,43.47
2019-01-23T06:55:22.104Z,43.17
2019-01-23T06:57:49.013Z,42.93
2019-01-23T07:00:18.664Z,31.00
2019-01-23T07:02:45.698Z,44.40
2019-01-23T07:05:12.537Z,36.20
2019-01-23T07:07:39.276Z,45.57
2019-01-23T07:10:48.366Z,44.57
2019-01-23T07:13:15.400Z,46.93
2019-01-23T07:15:42.174Z,41.53
2019-01-23T07:18:08.963Z,43.20
2019-01-23T07:20:35.775Z,44.70
2019-01-23T07:23:02.503Z,45.80
2019-01-23T07:25:29.493Z,44.17
2019-01-23T07:27:56.236Z,45.53
2019-01-23T07:30:42.938Z,50.80
2019-01-23T07:33:09.970Z,46.63
2019-01-23T07:35:36.699Z,48.80
2019-01-23T07:38:03.618Z,54.00
2019-01-23T07:40:30.252Z,51.40
2019-01-23T07:42:56.995Z,55.40
2019-01-23T07:45:24.028Z,52.83
2019-01-23T07:47:50.855Z,48.47
2019-01-23T07:50:17.604Z,49.53
2019-01-23T07:52:44.584Z,52.07
2019-01-23T07:55:13.065Z,55.40
2019-01-23T07:57:39.894Z,57.27
2019-01-23T08:00:09.639Z,48.20
2019-01-23T08:02:36.369Z,59.23
2019-01-23T08:05:44.596Z,47.57
2019-01-23T08:08:53.485Z,56.73
2019-01-23T08:11:20.325Z,60.60
2019-01-23T08:13:47.149Z,60.07
2019-01-23T08:16:14.005Z,61.87
2019-01-23T08:18:40.948Z,59.37
2019-01-23T08:21:07.683Z,60.20
2019-01-23T08:23:34.428Z,55.97
2019-01-23T08:26:01.288Z,57.17
2019-01-23T08:28:28.046Z,66.23
2019-01-23T08:30:54.875Z,65.47
2019-01-23T08:33:21.761Z,64.77
2019-01-23T08:35:48.638Z,68.93
2019-01-23T08:38:15.378Z,64.00
2019-01-23T08:40:42.248Z,54.23
2019-01-23T08:43:08.989Z,64.83
2019-01-23T08:45:36.043Z,69.33
2019-01-23T08:48:03.015Z,64.30
2019-01-23T08:50:50.878Z,59.03
2019-01-23T08:53:17.785Z,60.93
2019-01-23T08:55:44.516Z,61.27
2019-01-23T08:58:11.268Z,69.60
2019-01-23T09:00:51.352Z,64.30
2019-01-23T09:03:18.073Z,67.37
2019-01-23T09:05:44.847Z,74.00
2019-01-23T09:08:12.031Z,63.97
2019-01-23T09:10:38.862Z,48.27
2019-01-23T09:13:05.923Z,62.40
2019-01-23T09:15:33.071Z,69.83
2019-01-23T09:18:00.188Z,75.60
2019-01-23T09:20:27.362Z,81.27
2019-01-23T09:22:54.546Z,71.00
2019-01-23T09:25:22.218Z,77.67
2019-01-23T09:27:49.080Z,83.33
2019-01-23T09:30:37.010Z,76.87
2019-01-23T09:33:29.441Z,84.67
2019-01-23T09:36:35.382Z,66.83
2019-01-23T09:39:41.244Z,71.67
2019-01-23T09:42:47.253Z,75.53
2019-01-23T09:45:53.118Z,75.60
2019-01-23T09:48:43.546Z,72.73
2019-01-23T09:51:49.692Z,72.10
2019-01-23T09:54:16.740Z,70.63
2019-01-23T09:56:46.753Z,76.97
2019-01-23T09:59:13.505Z,74.63
2019-01-23T10:01:53.156Z,79.77
2019-01-23T10:04:20.123Z,73.47
2019-01-23T10:06:46.962Z,54.97
2019-01-23T10:09:13.945Z,80.50
2019-01-23T10:11:40.787Z,67.00
2019-01-23T10:14:07.623Z,76.83
2019-01-23T10:16:34.635Z,84.40
2019-01-23T10:19:01.750Z,68.73
2019-01-23T10:21:28.594Z,81.07
2019-01-23T10:23:55.304Z,62.70
2019-01-23T10:26:22.042Z,83.77
2019-01-23T10:28:49.122Z,70.73
2019-01-23T10:31:15.952Z,84.20
2019-01-23T10:33:43.193Z,68.83
2019-01-23T10:36:10.259Z,72.87
2019-01-23T10:38:37.184Z,85.53
2019-01-23T10:41:03.940Z,83.17
2019-01-23T10:43:30.788Z,87.30
2019-01-23T10:45:57.650Z,88.77
2019-01-23T10:48:24.797Z,81.73
2019-01-23T10:50:51.521Z,88.40
2019-01-23T10:53:18.617Z,77.23
2019-01-23T10:55:45.355Z,66.47
2019-01-23T10:58:12.191Z,73.53
2019-01-23T11:03:18.411Z,62.03
2019-01-23T11:05:45.248Z,68.43
2019-01-23T11:08:12.126Z,76.17
2019-01-23T11:10:39.364Z,71.60
2019-01-23T11:13:47.130Z,86.00
2019-01-23T11:16:13.886Z,72.63
2019-01-23T11:18:40.626Z,71.20
2019-01-23T11:21:07.860Z,69.47
2019-01-23T11:23:34.691Z,63.23
2019-01-23T11:26:01.531Z,77.20
2019-01-23T11:28:28.406Z,72.23
2019-01-23T11:30:55.371Z,71.90
2019-01-23T11:33:22.125Z,69.77
2019-01-23T11:35:48.961Z,71.30
2019-01-23T11:38:15.873Z,77.10
2019-01-23T11:40:42.860Z,67.03
2019-01-23T11:43:09.601Z,69.87
2019-01-23T11:45:37.036Z,54.53
2019-01-23T11:48:04.196Z,76.40
2019-01-23T11:50:31.221Z,62.77
2019-01-23T11:52:58.126Z,77.10
2019-01-23T11:55:24.868Z,61.67
2019-01-23T11:57:51.716Z,70.37
2019-01-23T12:00:20.451Z,57.27
2019-01-23T12:02:47.376Z,68.67
2019-01-23T12:05:26.585Z,58.40
2019-01-23T12:07:53.738Z,69.40
2019-01-23T12:10:21.934Z,55.27
2019-01-23T12:12:48.828Z,68.63
2019-01-23T12:15:17.730Z,69.30
2019-01-23T12:17:44.577Z,66.27
2019-01-23T12:20:33.167Z,68.17
2019-01-23T12:22:59.931Z,69.70
2019-01-23T12:25:27.104Z,63.40
2019-01-23T12:27:55.201Z,73.53
2019-01-23T12:30:41.550Z,70.00
2019-01-23T12:33:08.641Z,59.50
2019-01-23T12:35:35.374Z,55.23
2019-01-23T12:38:02.251Z,55.90
2019-01-23T12:40:29.025Z,66.40
2019-01-23T12:42:56.148Z,54.67
2019-01-23T12:45:24.980Z,73.60
2019-01-23T12:47:52.000Z,70.43
2019-01-23T12:51:00.997Z,72.60
2019-01-23T12:53:27.809Z,63.67
2019-01-23T12:55:54.548Z,76.53
2019-01-23T12:58:21.290Z,68.73
2019-01-23T13:00:48.080Z,61.27
2019-01-23T13:03:14.948Z,65.77
2019-01-23T13:05:41.850Z,68.63
2019-01-23T13:08:08.708Z,79.33
2019-01-23T13:10:36.156Z,66.50
2019-01-23T13:13:03.815Z,70.90
2019-01-23T13:15:30.736Z,72.37
2019-01-23T13:17:57.575Z,68.73
2019-01-23T13:20:24.637Z,69.10
2019-01-23T13:22:51.813Z,61.90
2019-01-23T13:25:20.695Z,69.00
2019-01-23T13:27:47.616Z,58.80
2019-01-23T13:30:17.068Z,68.87
2019-01-23T13:32:44.180Z,64.33
2019-01-23T13:35:31.776Z,65.07
2019-01-23T13:37:58.900Z,64.00
2019-01-23T13:40:28.832Z,66.33
2019-01-23T13:42:55.802Z,63.17
2019-01-23T13:45:22.872Z,64.67
2019-01-23T13:47:49.713Z,52.87
2019-01-23T13:50:16.782Z,55.53
2019-01-23T13:52:44.143Z,47.10
2019-01-23T13:55:11.893Z,50.00
2019-01-23T13:57:38.963Z,49.60
2019-01-23T14:00:47.856Z,45.87
2019-01-23T14:03:15.432Z,50.87
2019-01-23T14:05:42.304Z,51.90
2019-01-23T14:08:09.334Z,46.80
2019-01-23T14:10:36.337Z,45.20
2019-01-23T14:13:44.232Z,49.63
2019-01-23T14:16:11.658Z,44.20
2019-01-23T14:18:38.864Z,42.53
2019-01-23T14:21:05.910Z,40.30
2019-01-23T14:23:32.739Z,41.57
2019-01-23T14:25:59.618Z,35.30
2019-01-23T14:28:26.377Z,40.63
2019-01-23T14:30:53.201Z,39.00
2019-01-23T14:33:20.265Z,41.10
2019-01-23T14:35:47.090Z,36.40
2019-01-23T14:38:14.024Z,38.43
2019-01-23T14:40:41.196Z,39.40
2019-01-23T14:43:08.071Z,38.40
2019-01-23T14:45:35.051Z,38.10
2019-01-23T14:48:01.919Z,35.67
2019-01-23T14:50:29.050Z,30.03
2019-01-23T14:52:55.964Z,38.03
2019-01-23T14:55:22.814Z,39.90
2019-01-23T14:57:49.671Z,37.67
2019-01-23T15:00:37.573Z,34.30
2019-01-23T15:03:04.764Z,33.33
2019-01-23T15:05:31.752Z,31.00
2019-01-23T15:07:58.672Z,20.73
2019-01-23T15:10:27.063Z,30.53
2019-01-23T15:12:54.069Z,26.73
2019-01-23T15:15:21.107Z,36.77
2019-01-23T15:17:47.884Z,32.13
2019-01-23T15:20:57.230Z,32.70
2019-01-23T15:23:24.257Z,34.80
2019-01-23T15:25:51.107Z,36.00
2019-01-23T15:28:18.088Z,29.70
2019-01-23T15:30:44.936Z,30.33
2019-01-23T15:33:11.731Z,31.90
2019-01-23T15:35:38.637Z,32.53
2019-01-23T15:38:05.578Z,34.17
2019-01-23T15:40:34.792Z,34.07
2019-01-23T15:43:01.707Z,32.77
2019-01-23T15:45:28.465Z,33.20
2019-01-23T15:47:55.574Z,28.43
2019-01-23T15:50:23.751Z,28.77
2019-01-23T15:52:50.498Z,32.20
2019-01-23T15:55:58.862Z,24.67
2019-01-23T15:58:26.921Z,28.50
2019-01-23T16:00:58.400Z,29.10
2019-01-23T16:03:30.864Z,31.93
2019-01-23T16:05:57.770Z,30.73
2019-01-23T16:08:24.636Z,24.07
2019-01-23T16:11:04.160Z,23.27
2019-01-23T16:13:31.229Z,31.10
2019-01-23T16:15:57.979Z,23.67
2019-01-23T16:18:24.859Z,31.67
2019-01-23T16:20:51.616Z,31.53
2019-01-23T16:23:18.469Z,30.73
2019-01-23T16:25:45.539Z,31.87
2019-01-23T16:28:12.391Z,26.77
2019-01-23T16:30:39.247Z,29.17
2019-01-23T16:33:47.427Z,25.53
2019-01-23T16:36:14.237Z,28.17
2019-01-23T16:38:41.118Z,27.87
2019-01-23T16:41:08.417Z,28.83
2019-01-23T16:43:35.155Z,25.40
2019-01-23T16:46:01.892Z,25.33
2019-01-23T16:48:28.881Z,20.70
2019-01-23T16:50:55.616Z,23.93
2019-01-23T16:53:22.968Z,23.13
2019-01-23T16:55:50.400Z,24.53
2019-01-23T16:58:17.138Z,21.87
2019-01-23T17:00:43.875Z,19.83
2019-01-23T17:03:10.935Z,23.37
2019-01-23T17:05:37.715Z,26.83
2019-01-23T17:08:06.530Z,21.33
2019-01-23T17:10:33.422Z,24.57
2019-01-23T17:13:00.465Z,21.93
2019-01-23T17:15:27.294Z,26.47
2019-01-23T17:17:54.310Z,25.50
2019-01-23T17:20:43.796Z,24.50
2019-01-23T17:23:11.028Z,20.87
2019-01-23T17:25:38.025Z,25.07
2019-01-23T17:28:46.666Z,24.07
2019-01-23T17:31:13.575Z,21.57
2019-01-23T17:33:40.311Z,22.03
2019-01-23T17:36:07.279Z,21.57
2019-01-23T17:38:33.898Z,22.90
2019-01-23T17:41:00.638Z,22.23
2019-01-23T17:46:02.096Z,22.07
2019-01-23T17:48:28.956Z,22.43
2019-01-23T17:50:55.594Z,18.73
2019-01-23T17:53:22.461Z,19.93
2019-01-23T17:55:49.278Z,22.90
2019-01-23T17:58:16.131Z,21.57
2019-01-23T18:03:35.783Z,21.07
2019-01-23T18:06:02.746Z,20.60
2019-01-23T18:08:29.930Z,20.77
2019-01-23T18:10:56.988Z,16.90
2019-01-23T18:13:24.297Z,18.77
2019-01-23T18:15:51.849Z,17.37
2019-01-23T18:18:19.008Z,19.63
2019-01-23T18:20:45.901Z,23.90
2019-01-23T18:23:12.694Z,24.03
2019-01-23T18:25:39.573Z,23.07
2019-01-23T18:28:06.613Z,22.23
2019-01-23T18:30:37.324Z,24.97
2019-01-23T18:33:05.798Z,22.33
2019-01-23T18:35:59.008Z,17.17
2019-01-23T18:38:51.729Z,19.97
2019-01-23T18:41:57.854Z,21.43
2019-01-23T18:44:42.789Z,21.00
2019-01-23T18:47:48.715Z,19.23
2019-01-23T18:50:41.638Z,24.57
2019-01-23T18:53:08.445Z,18.13
2019-01-23T18:55:35.189Z,18.77
2019-01-23T18:58:02.902Z,16.97
2019-01-23T19:00:29.992Z,24.33
2019-01-23T19:02:56.833Z,25.57
2019-01-23T19:05:23.562Z,24.07
2019-01-23T19:07:50.356Z,20.77
2019-01-23T19:10:58.408Z,16.60
2019-01-23T19:13:25.747Z,24.70
2019-01-23T19:15:52.751Z,23.23
2019-01-23T19:18:19.843Z,22.97
2019-01-23T19:20:46.925Z,20.60
2019-01-23T19:23:13.694Z,24.23
2019-01-23T19:25:40.469Z,22.30
2019-01-23T19:28:07.723Z,24.57
2019-01-23T19:30:34.561Z,22.77
2019-01-23T19:33:01.289Z,24.60
2019-01-23T19:35:28.052Z,22.93
2019-01-23T19:37:54.785Z,25.70
2019-01-23T19:40:21.523Z,25.17
2019-01-23T19:42:48.319Z,23.20
2019-01-23T19:45:19.757Z,22.47
2019-01-23T19:47:46.784Z,25.87
2019-01-23T19:50:13.715Z,25.03
2019-01-23T19:52:40.551Z,26.33
2019-01-23T19:55:08.964Z,21.67
2019-01-23T19:57:36.229Z,20.77
2019-01-23T20:00:44.184Z,22.43
2019-01-23T20:03:11.100Z,24.20
2019-01-23T20:05:38.341Z,23.10
2019-01-23T20:08:05.164Z,24.67
2019-01-23T20:10:32.201Z,25.70
2019-01-23T20:12:59.081Z,24.73
2019-01-23T20:15:25.841Z,27.27
2019-01-23T20:17:56.270Z,25.57
2019-01-23T20:20:23.226Z,23.87
2019-01-23T20:22:50.001Z,25.17
2019-01-23T20:25:19.483Z,25.77
2019-01-23T20:27:46.363Z,25.47
2019-01-23T20:30:25.857Z,25.57
2019-01-23T20:32:52.742Z,26.07
2019-01-23T20:35:19.911Z,27.20
2019-01-23T20:37:46.908Z,26.17
2019-01-23T20:40:13.796Z,24.83
2019-01-23T20:42:40.597Z,27.03
2019-01-23T20:45:10.174Z,26.27
2019-01-23T20:47:37.090Z,26.67
2019-01-23T20:50:06.951Z,27.60
2019-01-23T20:52:34.267Z,26.27
2019-01-23T20:55:01.041Z,25.77
2019-01-23T20:57:27.908Z,26.33
2019-01-23T21:00:15.571Z,26.63
2019-01-23T21:02:42.305Z,25.27
2019-01-23T21:05:28.991Z,27.73
2019-01-23T21:07:56.313Z,26.77
2019-01-23T21:10:42.806Z,26.73
2019-01-23T21:13:09.679Z,27.77
2019-01-23T21:15:36.487Z,26.50
2019-01-23T21:18:45.364Z,26.87
2019-01-23T21:21:12.296Z,23.67
2019-01-23T21:23:58.727Z,25.50
2019-01-23T21:26:25.774Z,25.40
2019-01-23T21:28:52.506Z,26.90
2019-01-23T21:31:39.018Z,25.53
2019-01-23T21:34:25.282Z,25.40
2019-01-23T21:37:11.703Z,24.57
2019-01-23T21:39:58.088Z,25.20
2019-01-23T21:42:24.891Z,25.07
2019-01-23T21:44:52.034Z,25.30
2019-01-23T21:47:19.085Z,25.70
2019-01-23T21:49:45.889Z,24.60
2019-01-23T21:52:32.260Z,26.77
2019-01-23T21:54:59.362Z,25.67
2019-01-23T21:57:45.717Z,25.33
2019-01-23T22:00:16.403Z,24.00
2019-01-23T22:03:02.991Z,27.00
2019-01-23T22:05:30.672Z,23.33
2019-01-23T22:07:57.603Z,25.37
2019-01-23T22:10:24.342Z,23.23
2019-01-23T22:13:10.758Z,26.57
2019-01-23T22:15:37.490Z,26.50
2019-01-23T22:18:24.389Z,26.03
2019-01-23T22:21:10.800Z,26.70
2019-01-23T22:23:50.732Z,25.50
2019-01-23T22:26:17.496Z,23.37
2019-01-23T22:28:44.281Z,23.37
2019-01-23T22:31:11.325Z,25.40
2019-01-23T22:33:57.589Z,26.50
2019-01-23T22:36:43.932Z,26.93
2019-01-23T22:39:10.673Z,27.53
2019-01-23T22:41:37.416Z,25.33
2019-01-23T22:44:04.390Z,26.33
2019-01-23T22:46:50.754Z,25.93
2019-01-23T22:49:17.882Z,23.63
2019-01-23T22:52:04.246Z,25.17
2019-01-23T22:54:50.811Z,24.43
2019-01-23T22:57:37.175Z,24.90
2019-01-23T23:00:25.196Z,23.53
2019-01-23T23:02:52.589Z,25.47
2019-01-23T23:05:19.331Z,23.47
2019-01-23T23:07:46.190Z,24.33
2019-01-23T23:10:13.130Z,25.47
2019-01-23T23:12:39.867Z,25.00
2019-01-23T23:15:48.077Z,24.57
2019-01-23T23:18:14.815Z,23.13
2019-01-23T23:20:41.558Z,20.70
2019-01-23T23:23:28.118Z,23.03
2019-01-23T23:25:54.953Z,21.23
2019-01-23T23:28:34.830Z,25.43
2019-01-23T23:31:13.920Z,22.03
2019-01-23T23:33:41.279Z,23.20
2019-01-23T23:36:08.254Z,23.30
2019-01-23T23:38:34.997Z,23.73
2019-01-23T23:41:01.839Z,23.33
2019-01-23T23:43:28.721Z,19.27
2019-01-23T23:45:55.962Z,22.37
2019-01-23T23:48:42.456Z,21.87
2019-01-23T23:51:28.811Z,23.33
2019-01-23T23:53:55.736Z,22.10
2019-01-23T23:56:22.475Z,21.47
2019-01-23T23:58:49.202Z,21.13
